sensor_id;sensor_type;location;lat;lon;timestamp;temperature;humidity
52899;DHT22;38763;53.096;6.062;2023-04-24T00:02:05;11.50;99.90
52899;DHT22;38763;53.096;6.062;2023-04-24T00:04:32;11.50;99.90
52899;DHT22;38763;53.096;6.062;2023-04-24T00:06:57;11.40;99.90
52899;DHT22;38763;53.096;6.062;2023-04-24T00:09:25;11.40;99.90
52899;DHT22;38763;53.096;6.062;2023-04-24T00:11:52;11.40;99.90
52899;DHT22;38763;53.096;6.062;2023-04-24T00:14:18;11.30;99.90
52899;DHT22;38763;53.096;6.062;2023-04-24T00:16:43;11.30;99.90
52899;DHT22;38763;53.096;6.062;2023-04-24T00:19:09;11.30;99.90
52899;DHT22;38763;53.096;6.062;2023-04-24T00:21:34;11.30;99.90
52899;DHT22;38763;53.096;6.062;2023-04-24T00:24:00;11.30;99.90
52899;DHT22;38763;53.096;6.062;2023-04-24T00:26:26;11.30;99.90
52899;DHT22;38763;53.096;6.062;2023-04-24T00:28:51;11.20;99.90
52899;DHT22;38763;53.096;6.062;2023-04-24T00:31:17;11.20;99.90
52899;DHT22;38763;53.096;6.062;2023-04-24T00:33:43;11.20;99.90
52899;DHT22;38763;53.096;6.062;2023-04-24T00:36:08;11.20;99.90
52899;DHT22;38763;53.096;6.062;2023-04-24T00:38:35;11.10;99.90
52899;DHT22;38763;53.096;6.062;2023-04-24T00:41:00;11.10;99.90
52899;DHT22;38763;53.096;6.062;2023-04-24T00:43:26;11.10;99.90
52899;DHT22;38763;53.096;6.062;2023-04-24T00:45:52;11.10;99.90
52899;DHT22;38763;53.096;6.062;2023-04-24T00:48:18;11.10;99.90
52899;DHT22;38763;53.096;6.062;2023-04-24T00:50:45;11.10;99.90
52899;DHT22;38763;53.096;6.062;2023-04-24T00:53:11;11.10;99.90
52899;DHT22;38763;53.096;6.062;2023-04-24T00:55:37;11.10;99.90
52899;DHT22;38763;53.096;6.062;2023-04-24T00:58:02;11.10;99.90
52899;DHT22;38763;53.096;6.062;2023-04-24T01:00:28;11.10;99.90
52899;DHT22;38763;53.096;6.062;2023-04-24T01:02:55;11.00;99.90
52899;DHT22;38763;53.096;6.062;2023-04-24T01:05:22;11.00;99.90
52899;DHT22;38763;53.096;6.062;2023-04-24T01:07:48;11.00;99.90
52899;DHT22;38763;53.096;6.062;2023-04-24T01:10:15;10.90;99.90
52899;DHT22;38763;53.096;6.062;2023-04-24T01:12:41;10.80;99.90
52899;DHT22;38763;53.096;6.062;2023-04-24T01:15:07;10.90;99.90
52899;DHT22;38763;53.096;6.062;2023-04-24T01:17:33;10.80;99.90
52899;DHT22;38763;53.096;6.062;2023-04-24T01:19:59;10.80;99.90
52899;DHT22;38763;53.096;6.062;2023-04-24T01:22:26;10.80;99.90
52899;DHT22;38763;53.096;6.062;2023-04-24T01:24:53;10.80;99.90
52899;DHT22;38763;53.096;6.062;2023-04-24T01:27:19;10.80;99.90
52899;DHT22;38763;53.096;6.062;2023-04-24T01:29:45;10.70;99.90
52899;DHT22;38763;53.096;6.062;2023-04-24T01:32:13;10.70;99.90
52899;DHT22;38763;53.096;6.062;2023-04-24T01:34:39;10.60;99.90
52899;DHT22;38763;53.096;6.062;2023-04-24T01:37:05;10.60;99.90
52899;DHT22;38763;53.096;6.062;2023-04-24T01:39:31;10.80;99.90
52899;DHT22;38763;53.096;6.062;2023-04-24T01:41:59;10.70;99.90
52899;DHT22;38763;53.096;6.062;2023-04-24T01:44:25;10.70;99.90
52899;DHT22;38763;53.096;6.062;2023-04-24T01:46:51;10.70;99.90
52899;DHT22;38763;53.096;6.062;2023-04-24T01:49:19;10.70;99.90
52899;DHT22;38763;53.096;6.062;2023-04-24T01:51:45;10.80;99.90
52899;DHT22;38763;53.096;6.062;2023-04-24T01:54:11;10.70;99.90
52899;DHT22;38763;53.096;6.062;2023-04-24T01:56:40;10.60;99.90
52899;DHT22;38763;53.096;6.062;2023-04-24T01:59:07;10.70;99.90
52899;DHT22;38763;53.096;6.062;2023-04-24T02:01:35;10.70;99.90
52899;DHT22;38763;53.096;6.062;2023-04-24T02:04:04;10.70;99.90
52899;DHT22;38763;53.096;6.062;2023-04-24T02:06:30;10.70;99.90
52899;DHT22;38763;53.096;6.062;2023-04-24T02:08:58;10.70;99.90
52899;DHT22;38763;53.096;6.062;2023-04-24T02:11:24;10.70;99.90
52899;DHT22;38763;53.096;6.062;2023-04-24T02:13:50;10.70;99.90
52899;DHT22;38763;53.096;6.062;2023-04-24T02:16:17;10.70;99.90
52899;DHT22;38763;53.096;6.062;2023-04-24T02:18:42;10.70;99.90
52899;DHT22;38763;53.096;6.062;2023-04-24T02:21:08;10.60;99.90
52899;DHT22;38763;53.096;6.062;2023-04-24T02:23:34;10.70;99.90
52899;DHT22;38763;53.096;6.062;2023-04-24T02:25:59;10.70;99.90
52899;DHT22;38763;53.096;6.062;2023-04-24T02:28:25;10.60;99.90
52899;DHT22;38763;53.096;6.062;2023-04-24T02:30:51;10.70;99.90
52899;DHT22;38763;53.096;6.062;2023-04-24T02:33:16;10.70;99.90
52899;DHT22;38763;53.096;6.062;2023-04-24T02:35:42;10.70;99.90
52899;DHT22;38763;53.096;6.062;2023-04-24T02:38:08;10.70;99.90
52899;DHT22;38763;53.096;6.062;2023-04-24T02:40:33;10.60;99.90
52899;DHT22;38763;53.096;6.062;2023-04-24T02:42:59;10.60;99.90
52899;DHT22;38763;53.096;6.062;2023-04-24T02:45:24;10.70;99.90
52899;DHT22;38763;53.096;6.062;2023-04-24T02:47:50;10.70;99.90
52899;DHT22;38763;53.096;6.062;2023-04-24T02:50:16;10.70;99.90
52899;DHT22;38763;53.096;6.062;2023-04-24T02:52:41;10.70;99.90
52899;DHT22;38763;53.096;6.062;2023-04-24T02:55:07;10.70;99.90
52899;DHT22;38763;53.096;6.062;2023-04-24T02:57:33;10.70;99.90
52899;DHT22;38763;53.096;6.062;2023-04-24T02:59:59;10.60;99.90
52899;DHT22;38763;53.096;6.062;2023-04-24T03:02:25;10.70;99.90
52899;DHT22;38763;53.096;6.062;2023-04-24T03:04:51;10.50;99.90
52899;DHT22;38763;53.096;6.062;2023-04-24T03:07:16;10.70;99.90
52899;DHT22;38763;53.096;6.062;2023-04-24T03:09:42;10.60;99.90
52899;DHT22;38763;53.096;6.062;2023-04-24T03:12:08;10.60;99.90
52899;DHT22;38763;53.096;6.062;2023-04-24T03:14:34;10.60;99.90
52899;DHT22;38763;53.096;6.062;2023-04-24T03:17:00;10.60;99.90
52899;DHT22;38763;53.096;6.062;2023-04-24T03:19:25;10.70;99.90
52899;DHT22;38763;53.096;6.062;2023-04-24T03:21:51;10.60;99.90
52899;DHT22;38763;53.096;6.062;2023-04-24T03:24:17;10.60;99.90
52899;DHT22;38763;53.096;6.062;2023-04-24T03:26:42;10.50;99.90
52899;DHT22;38763;53.096;6.062;2023-04-24T03:29:08;10.60;99.90
52899;DHT22;38763;53.096;6.062;2023-04-24T03:31:33;10.60;99.90
52899;DHT22;38763;53.096;6.062;2023-04-24T03:33:59;10.60;99.90
52899;DHT22;38763;53.096;6.062;2023-04-24T03:36:25;10.60;99.90
52899;DHT22;38763;53.096;6.062;2023-04-24T03:38:51;10.50;99.90
52899;DHT22;38763;53.096;6.062;2023-04-24T03:41:17;10.50;99.90
52899;DHT22;38763;53.096;6.062;2023-04-24T03:43:43;10.50;99.90
52899;DHT22;38763;53.096;6.062;2023-04-24T03:46:08;10.40;99.90
52899;DHT22;38763;53.096;6.062;2023-04-24T03:48:35;10.40;99.90
52899;DHT22;38763;53.096;6.062;2023-04-24T03:51:00;10.40;99.90
52899;DHT22;38763;53.096;6.062;2023-04-24T03:53:26;10.40;99.90
52899;DHT22;38763;53.096;6.062;2023-04-24T03:55:52;10.40;99.90
52899;DHT22;38763;53.096;6.062;2023-04-24T03:58:18;10.30;99.90
52899;DHT22;38763;53.096;6.062;2023-04-24T04:00:44;10.30;99.90
52899;DHT22;38763;53.096;6.062;2023-04-24T04:03:12;10.30;99.90
52899;DHT22;38763;53.096;6.062;2023-04-24T04:05:39;10.30;99.90
52899;DHT22;38763;53.096;6.062;2023-04-24T04:08:04;10.20;99.90
52899;DHT22;38763;53.096;6.062;2023-04-24T04:10:30;10.20;99.90
52899;DHT22;38763;53.096;6.062;2023-04-24T04:12:56;10.20;99.90
52899;DHT22;38763;53.096;6.062;2023-04-24T04:15:21;10.20;99.90
52899;DHT22;38763;53.096;6.062;2023-04-24T04:17:47;10.10;99.90
52899;DHT22;38763;53.096;6.062;2023-04-24T04:20:13;10.10;99.90
52899;DHT22;38763;53.096;6.062;2023-04-24T04:22:38;10.20;99.90
52899;DHT22;38763;53.096;6.062;2023-04-24T04:25:05;10.20;99.90
52899;DHT22;38763;53.096;6.062;2023-04-24T04:27:31;10.20;99.90
52899;DHT22;38763;53.096;6.062;2023-04-24T04:30:01;10.10;99.90
52899;DHT22;38763;53.096;6.062;2023-04-24T04:32:31;10.00;99.90
52899;DHT22;38763;53.096;6.062;2023-04-24T04:34:58;10.10;99.90
52899;DHT22;38763;53.096;6.062;2023-04-24T04:37:29;10.10;99.90
52899;DHT22;38763;53.096;6.062;2023-04-24T04:39:54;10.10;99.90
52899;DHT22;38763;53.096;6.062;2023-04-24T04:42:20;10.10;99.90
52899;DHT22;38763;53.096;6.062;2023-04-24T04:44:46;10.10;99.90
52899;DHT22;38763;53.096;6.062;2023-04-24T04:47:11;10.00;99.90
52899;DHT22;38763;53.096;6.062;2023-04-24T04:49:38;10.00;99.90
52899;DHT22;38763;53.096;6.062;2023-04-24T04:52:04;10.00;99.90
52899;DHT22;38763;53.096;6.062;2023-04-24T04:54:30;10.00;99.90
52899;DHT22;38763;53.096;6.062;2023-04-24T04:56:56;10.10;99.90
52899;DHT22;38763;53.096;6.062;2023-04-24T04:59:22;10.00;99.90
52899;DHT22;38763;53.096;6.062;2023-04-24T05:01:48;10.00;99.90
52899;DHT22;38763;53.096;6.062;2023-04-24T05:04:14;10.00;99.90
52899;DHT22;38763;53.096;6.062;2023-04-24T05:06:39;10.00;99.90
52899;DHT22;38763;53.096;6.062;2023-04-24T05:09:05;9.90;99.90
52899;DHT22;38763;53.096;6.062;2023-04-24T05:11:32;10.00;99.90
52899;DHT22;38763;53.096;6.062;2023-04-24T05:13:58;9.90;99.90
52899;DHT22;38763;53.096;6.062;2023-04-24T05:16:23;9.90;99.90
52899;DHT22;38763;53.096;6.062;2023-04-24T05:18:49;10.00;99.90
52899;DHT22;38763;53.096;6.062;2023-04-24T05:21:15;10.00;99.90
52899;DHT22;38763;53.096;6.062;2023-04-24T05:23:40;9.90;99.90
52899;DHT22;38763;53.096;6.062;2023-04-24T05:26:06;9.90;99.90
52899;DHT22;38763;53.096;6.062;2023-04-24T05:28:32;9.90;99.90
52899;DHT22;38763;53.096;6.062;2023-04-24T05:30:57;10.00;99.90
52899;DHT22;38763;53.096;6.062;2023-04-24T05:33:24;10.00;99.90
52899;DHT22;38763;53.096;6.062;2023-04-24T05:35:50;10.00;99.90
52899;DHT22;38763;53.096;6.062;2023-04-24T05:38:16;9.90;99.90
52899;DHT22;38763;53.096;6.062;2023-04-24T05:40:47;9.90;99.90
52899;DHT22;38763;53.096;6.062;2023-04-24T05:43:13;10.00;99.90
52899;DHT22;38763;53.096;6.062;2023-04-24T05:45:39;9.90;99.90
52899;DHT22;38763;53.096;6.062;2023-04-24T05:48:05;9.80;99.90
52899;DHT22;38763;53.096;6.062;2023-04-24T05:50:31;10.00;99.90
52899;DHT22;38763;53.096;6.062;2023-04-24T05:52:57;9.90;99.90
52899;DHT22;38763;53.096;6.062;2023-04-24T05:55:27;9.90;99.90
52899;DHT22;38763;53.096;6.062;2023-04-24T05:57:53;9.90;99.90
52899;DHT22;38763;53.096;6.062;2023-04-24T06:00:19;9.90;99.90
52899;DHT22;38763;53.096;6.062;2023-04-24T06:02:46;9.90;99.90
52899;DHT22;38763;53.096;6.062;2023-04-24T06:05:11;9.90;99.90
52899;DHT22;38763;53.096;6.062;2023-04-24T06:07:37;9.90;99.90
52899;DHT22;38763;53.096;6.062;2023-04-24T06:10:03;9.80;99.90
52899;DHT22;38763;53.096;6.062;2023-04-24T06:12:29;9.90;99.90
52899;DHT22;38763;53.096;6.062;2023-04-24T06:14:55;9.80;99.90
52899;DHT22;38763;53.096;6.062;2023-04-24T06:17:23;9.90;99.90
52899;DHT22;38763;53.096;6.062;2023-04-24T06:19:48;9.80;99.90
52899;DHT22;38763;53.096;6.062;2023-04-24T06:22:14;9.70;99.90
52899;DHT22;38763;53.096;6.062;2023-04-24T06:24:40;9.70;99.90
52899;DHT22;38763;53.096;6.062;2023-04-24T06:27:06;9.70;99.90
52899;DHT22;38763;53.096;6.062;2023-04-24T06:29:33;9.70;99.90
52899;DHT22;38763;53.096;6.062;2023-04-24T06:31:59;9.80;99.90
52899;DHT22;38763;53.096;6.062;2023-04-24T06:34:25;9.70;99.90
52899;DHT22;38763;53.096;6.062;2023-04-24T06:36:51;9.70;99.90
52899;DHT22;38763;53.096;6.062;2023-04-24T06:39:16;9.60;99.90
52899;DHT22;38763;53.096;6.062;2023-04-24T06:41:42;9.70;99.90
52899;DHT22;38763;53.096;6.062;2023-04-24T06:44:07;9.60;99.90
52899;DHT22;38763;53.096;6.062;2023-04-24T06:46:33;9.70;99.90
52899;DHT22;38763;53.096;6.062;2023-04-24T06:49:00;9.70;99.90
52899;DHT22;38763;53.096;6.062;2023-04-24T06:51:26;9.70;99.90
52899;DHT22;38763;53.096;6.062;2023-04-24T06:53:55;9.70;99.90
52899;DHT22;38763;53.096;6.062;2023-04-24T06:56:23;9.60;99.90
52899;DHT22;38763;53.096;6.062;2023-04-24T06:58:50;9.60;99.90
52899;DHT22;38763;53.096;6.062;2023-04-24T07:01:16;9.60;99.90
52899;DHT22;38763;53.096;6.062;2023-04-24T07:03:42;9.60;99.90
52899;DHT22;38763;53.096;6.062;2023-04-24T07:06:08;9.50;99.90
52899;DHT22;38763;53.096;6.062;2023-04-24T07:08:35;9.50;99.90
52899;DHT22;38763;53.096;6.062;2023-04-24T07:11:01;9.50;99.90
52899;DHT22;38763;53.096;6.062;2023-04-24T07:13:27;9.40;99.90
52899;DHT22;38763;53.096;6.062;2023-04-24T07:15:53;9.50;99.90
52899;DHT22;38763;53.096;6.062;2023-04-24T07:18:20;9.30;99.90
52899;DHT22;38763;53.096;6.062;2023-04-24T07:20:46;9.20;99.90
52899;DHT22;38763;53.096;6.062;2023-04-24T07:23:12;9.20;99.90
52899;DHT22;38763;53.096;6.062;2023-04-24T07:25:38;9.20;99.90
52899;DHT22;38763;53.096;6.062;2023-04-24T07:28:04;9.30;99.90
52899;DHT22;38763;53.096;6.062;2023-04-24T07:30:31;9.30;99.90
52899;DHT22;38763;53.096;6.062;2023-04-24T07:32:58;9.20;99.90
52899;DHT22;38763;53.096;6.062;2023-04-24T07:35:25;9.20;99.90
52899;DHT22;38763;53.096;6.062;2023-04-24T07:37:54;9.30;99.90
52899;DHT22;38763;53.096;6.062;2023-04-24T07:40:20;9.20;99.90
52899;DHT22;38763;53.096;6.062;2023-04-24T07:42:46;9.40;99.90
52899;DHT22;38763;53.096;6.062;2023-04-24T07:45:14;9.30;99.90
52899;DHT22;38763;53.096;6.062;2023-04-24T07:47:41;9.30;99.90
52899;DHT22;38763;53.096;6.062;2023-04-24T07:50:09;9.30;99.90
52899;DHT22;38763;53.096;6.062;2023-04-24T07:52:35;9.30;99.90
52899;DHT22;38763;53.096;6.062;2023-04-24T07:55:01;9.20;99.90
52899;DHT22;38763;53.096;6.062;2023-04-24T07:57:28;9.10;99.90
52899;DHT22;38763;53.096;6.062;2023-04-24T07:59:54;9.10;99.90
52899;DHT22;38763;53.096;6.062;2023-04-24T08:02:20;9.10;99.90
52899;DHT22;38763;53.096;6.062;2023-04-24T08:04:54;9.10;99.90
52899;DHT22;38763;53.096;6.062;2023-04-24T08:07:20;9.10;99.90
52899;DHT22;38763;53.096;6.062;2023-04-24T08:09:46;9.10;99.90
52899;DHT22;38763;53.096;6.062;2023-04-24T08:12:11;9.10;99.90
52899;DHT22;38763;53.096;6.062;2023-04-24T08:14:37;9.10;99.90
52899;DHT22;38763;53.096;6.062;2023-04-24T08:17:03;9.20;99.90
52899;DHT22;38763;53.096;6.062;2023-04-24T08:19:29;9.20;99.90
52899;DHT22;38763;53.096;6.062;2023-04-24T08:21:54;9.20;99.90
52899;DHT22;38763;53.096;6.062;2023-04-24T08:24:20;9.30;99.90
52899;DHT22;38763;53.096;6.062;2023-04-24T08:26:46;9.30;99.90
52899;DHT22;38763;53.096;6.062;2023-04-24T08:29:15;9.40;99.90
52899;DHT22;38763;53.096;6.062;2023-04-24T08:31:41;9.40;99.90
52899;DHT22;38763;53.096;6.062;2023-04-24T08:34:07;9.50;99.90
52899;DHT22;38763;53.096;6.062;2023-04-24T08:36:32;9.50;99.90
52899;DHT22;38763;53.096;6.062;2023-04-24T08:38:58;9.50;99.90
52899;DHT22;38763;53.096;6.062;2023-04-24T08:41:24;9.60;99.90
52899;DHT22;38763;53.096;6.062;2023-04-24T08:43:51;9.50;99.90
52899;DHT22;38763;53.096;6.062;2023-04-24T08:46:19;9.60;99.90
52899;DHT22;38763;53.096;6.062;2023-04-24T08:48:45;9.60;99.90
52899;DHT22;38763;53.096;6.062;2023-04-24T08:51:11;9.70;99.90
52899;DHT22;38763;53.096;6.062;2023-04-24T08:53:37;9.60;99.90
52899;DHT22;38763;53.096;6.062;2023-04-24T08:56:03;9.50;99.90
52899;DHT22;38763;53.096;6.062;2023-04-24T08:58:31;9.40;99.90
52899;DHT22;38763;53.096;6.062;2023-04-24T09:00:57;9.40;99.90
52899;DHT22;38763;53.096;6.062;2023-04-24T09:03:23;9.30;99.90
52899;DHT22;38763;53.096;6.062;2023-04-24T09:05:50;9.30;99.90
52899;DHT22;38763;53.096;6.062;2023-04-24T09:08:19;9.30;99.90
52899;DHT22;38763;53.096;6.062;2023-04-24T09:10:47;9.30;99.90
52899;DHT22;38763;53.096;6.062;2023-04-24T09:13:13;9.50;99.90
52899;DHT22;38763;53.096;6.062;2023-04-24T09:15:40;9.60;99.90
52899;DHT22;38763;53.096;6.062;2023-04-24T09:18:06;9.60;99.90
52899;DHT22;38763;53.096;6.062;2023-04-24T09:20:32;9.60;99.90
52899;DHT22;38763;53.096;6.062;2023-04-24T09:22:58;9.60;99.90
52899;DHT22;38763;53.096;6.062;2023-04-24T09:25:34;9.70;99.90
52899;DHT22;38763;53.096;6.062;2023-04-24T09:28:02;9.90;99.90
52899;DHT22;38763;53.096;6.062;2023-04-24T09:30:28;9.90;99.90
52899;DHT22;38763;53.096;6.062;2023-04-24T09:33:13;9.90;99.90
52899;DHT22;38763;53.096;6.062;2023-04-24T09:35:50;10.10;99.90
52899;DHT22;38763;53.096;6.062;2023-04-24T09:38:16;10.20;99.90
52899;DHT22;38763;53.096;6.062;2023-04-24T09:40:42;10.30;99.90
52899;DHT22;38763;53.096;6.062;2023-04-24T09:43:11;10.30;99.90
52899;DHT22;38763;53.096;6.062;2023-04-24T09:45:38;10.40;99.90
52899;DHT22;38763;53.096;6.062;2023-04-24T09:48:05;10.30;99.90
52899;DHT22;38763;53.096;6.062;2023-04-24T09:50:32;10.30;99.90
52899;DHT22;38763;53.096;6.062;2023-04-24T09:53:02;10.20;99.90
52899;DHT22;38763;53.096;6.062;2023-04-24T09:55:28;10.30;99.90
52899;DHT22;38763;53.096;6.062;2023-04-24T09:57:56;10.20;99.90
52899;DHT22;38763;53.096;6.062;2023-04-24T10:00:26;10.20;99.90
52899;DHT22;38763;53.096;6.062;2023-04-24T10:03:05;10.30;99.90
52899;DHT22;38763;53.096;6.062;2023-04-24T10:05:35;10.30;99.90
52899;DHT22;38763;53.096;6.062;2023-04-24T10:08:03;10.30;99.90
52899;DHT22;38763;53.096;6.062;2023-04-24T10:10:30;10.30;99.90
52899;DHT22;38763;53.096;6.062;2023-04-24T10:12:55;10.30;99.90
52899;DHT22;38763;53.096;6.062;2023-04-24T10:15:21;10.20;99.90
52899;DHT22;38763;53.096;6.062;2023-04-24T10:17:49;10.20;99.90
52899;DHT22;38763;53.096;6.062;2023-04-24T10:20:23;10.20;99.90
52899;DHT22;38763;53.096;6.062;2023-04-24T10:22:50;10.10;99.90
52899;DHT22;38763;53.096;6.062;2023-04-24T10:25:22;10.10;99.90
52899;DHT22;38763;53.096;6.062;2023-04-24T10:27:49;10.10;99.90
52899;DHT22;38763;53.096;6.062;2023-04-24T10:30:16;10.10;99.90
52899;DHT22;38763;53.096;6.062;2023-04-24T10:32:41;10.20;99.90
52899;DHT22;38763;53.096;6.062;2023-04-24T10:35:08;10.20;99.90
52899;DHT22;38763;53.096;6.062;2023-04-24T10:37:37;10.20;99.90
52899;DHT22;38763;53.096;6.062;2023-04-24T10:40:04;10.20;99.90
52899;DHT22;38763;53.096;6.062;2023-04-24T10:42:31;10.20;99.90
52899;DHT22;38763;53.096;6.062;2023-04-24T10:44:56;10.30;99.90
52899;DHT22;38763;53.096;6.062;2023-04-24T10:47:23;10.40;99.90
52899;DHT22;38763;53.096;6.062;2023-04-24T10:49:50;10.60;99.90
52899;DHT22;38763;53.096;6.062;2023-04-24T10:52:16;10.90;99.90
52899;DHT22;38763;53.096;6.062;2023-04-24T10:54:46;11.00;99.90
52899;DHT22;38763;53.096;6.062;2023-04-24T10:59:45;11.20;99.90
52899;DHT22;38763;53.096;6.062;2023-04-24T11:02:11;11.20;99.90
52899;DHT22;38763;53.096;6.062;2023-04-24T11:04:39;11.20;99.90
52899;DHT22;38763;53.096;6.062;2023-04-24T11:07:05;11.00;99.90
52899;DHT22;38763;53.096;6.062;2023-04-24T11:09:31;10.80;99.90
52899;DHT22;38763;53.096;6.062;2023-04-24T11:12:08;10.80;99.90
52899;DHT22;38763;53.096;6.062;2023-04-24T11:17:31;10.50;99.90
52899;DHT22;38763;53.096;6.062;2023-04-24T11:20:06;10.30;99.90
52899;DHT22;38763;53.096;6.062;2023-04-24T11:22:34;10.20;99.90
52899;DHT22;38763;53.096;6.062;2023-04-24T11:25:01;10.00;99.90
52899;DHT22;38763;53.096;6.062;2023-04-24T11:27:30;9.80;99.90
52899;DHT22;38763;53.096;6.062;2023-04-24T11:39:59;9.90;99.90
52899;DHT22;38763;53.096;6.062;2023-04-24T11:42:25;10.00;99.90
52899;DHT22;38763;53.096;6.062;2023-04-24T11:44:54;9.90;99.90
52899;DHT22;38763;53.096;6.062;2023-04-24T11:47:30;9.90;99.90
52899;DHT22;38763;53.096;6.062;2023-04-24T11:49:57;9.90;99.90
52899;DHT22;38763;53.096;6.062;2023-04-24T11:52:23;10.00;99.90
52899;DHT22;38763;53.096;6.062;2023-04-24T11:54:51;10.00;99.90
52899;DHT22;38763;53.096;6.062;2023-04-24T11:57:21;10.00;99.90
52899;DHT22;38763;53.096;6.062;2023-04-24T11:59:48;10.10;99.90
52899;DHT22;38763;53.096;6.062;2023-04-24T12:02:23;10.20;99.90
52899;DHT22;38763;53.096;6.062;2023-04-24T12:04:50;10.20;99.90
52899;DHT22;38763;53.096;6.062;2023-04-24T12:07:16;10.30;99.90
52899;DHT22;38763;53.096;6.062;2023-04-24T12:09:43;10.30;99.90
52899;DHT22;38763;53.096;6.062;2023-04-24T12:12:10;10.20;99.90
52899;DHT22;38763;53.096;6.062;2023-04-24T12:14:50;10.20;99.90
52899;DHT22;38763;53.096;6.062;2023-04-24T12:17:17;10.20;99.90
52899;DHT22;38763;53.096;6.062;2023-04-24T12:19:47;10.10;99.90
52899;DHT22;38763;53.096;6.062;2023-04-24T12:22:13;10.10;99.90
52899;DHT22;38763;53.096;6.062;2023-04-24T12:24:59;10.30;99.90
52899;DHT22;38763;53.096;6.062;2023-04-24T12:27:26;10.40;99.90
52899;DHT22;38763;53.096;6.062;2023-04-24T12:29:58;10.60;99.90
52899;DHT22;38763;53.096;6.062;2023-04-24T12:32:24;10.70;99.90
52899;DHT22;38763;53.096;6.062;2023-04-24T12:34:51;10.90;99.90
52899;DHT22;38763;53.096;6.062;2023-04-24T12:37:18;10.90;99.90
52899;DHT22;38763;53.096;6.062;2023-04-24T12:40:11;10.90;99.90
52899;DHT22;38763;53.096;6.062;2023-04-24T12:42:46;10.80;99.90
52899;DHT22;38763;53.096;6.062;2023-04-24T12:45:12;10.90;99.90
52899;DHT22;38763;53.096;6.062;2023-04-24T12:47:39;10.90;99.90
52899;DHT22;38763;53.096;6.062;2023-04-24T12:50:07;10.70;99.90
52899;DHT22;38763;53.096;6.062;2023-04-24T12:52:32;10.60;99.90
52899;DHT22;38763;53.096;6.062;2023-04-24T12:54:59;10.70;99.90
52899;DHT22;38763;53.096;6.062;2023-04-24T12:57:26;10.70;99.90
52899;DHT22;38763;53.096;6.062;2023-04-24T12:59:57;10.70;99.90
52899;DHT22;38763;53.096;6.062;2023-04-24T13:02:26;10.70;99.90
52899;DHT22;38763;53.096;6.062;2023-04-24T13:04:53;10.80;99.90
52899;DHT22;38763;53.096;6.062;2023-04-24T13:07:19;11.00;99.90
52899;DHT22;38763;53.096;6.062;2023-04-24T13:09:47;11.20;99.90
52899;DHT22;38763;53.096;6.062;2023-04-24T13:12:13;11.30;99.90
52899;DHT22;38763;53.096;6.062;2023-04-24T13:14:38;11.50;99.90
52899;DHT22;38763;53.096;6.062;2023-04-24T13:17:04;11.30;99.90
52899;DHT22;38763;53.096;6.062;2023-04-24T13:19:36;11.20;99.90
52899;DHT22;38763;53.096;6.062;2023-04-24T13:22:01;11.20;99.90
52899;DHT22;38763;53.096;6.062;2023-04-24T13:24:27;10.90;99.90
52899;DHT22;38763;53.096;6.062;2023-04-24T13:26:53;10.90;99.90
52899;DHT22;38763;53.096;6.062;2023-04-24T13:29:19;10.90;99.90
52899;DHT22;38763;53.096;6.062;2023-04-24T13:31:46;10.90;99.90
52899;DHT22;38763;53.096;6.062;2023-04-24T13:34:13;10.70;99.90
52899;DHT22;38763;53.096;6.062;2023-04-24T13:36:38;10.50;99.90
52899;DHT22;38763;53.096;6.062;2023-04-24T13:39:05;10.40;99.90
52899;DHT22;38763;53.096;6.062;2023-04-24T13:41:32;10.30;99.90
52899;DHT22;38763;53.096;6.062;2023-04-24T13:43:58;10.30;99.90
52899;DHT22;38763;53.096;6.062;2023-04-24T13:46:23;10.40;99.90
52899;DHT22;38763;53.096;6.062;2023-04-24T13:48:49;10.40;99.90
52899;DHT22;38763;53.096;6.062;2023-04-24T13:51:15;10.40;99.90
52899;DHT22;38763;53.096;6.062;2023-04-24T13:53:41;10.40;99.90
52899;DHT22;38763;53.096;6.062;2023-04-24T13:56:06;10.40;99.90
52899;DHT22;38763;53.096;6.062;2023-04-24T13:58:33;10.30;99.90
52899;DHT22;38763;53.096;6.062;2023-04-24T14:00:58;10.20;99.90
52899;DHT22;38763;53.096;6.062;2023-04-24T14:03:24;10.00;99.90
52899;DHT22;38763;53.096;6.062;2023-04-24T14:05:50;10.00;99.90
52899;DHT22;38763;53.096;6.062;2023-04-24T14:08:15;10.00;99.90
52899;DHT22;38763;53.096;6.062;2023-04-24T14:10:42;10.00;99.90
52899;DHT22;38763;53.096;6.062;2023-04-24T14:13:08;10.00;99.90
52899;DHT22;38763;53.096;6.062;2023-04-24T14:15:35;10.00;99.90
52899;DHT22;38763;53.096;6.062;2023-04-24T14:18:01;10.10;99.90
52899;DHT22;38763;53.096;6.062;2023-04-24T14:20:28;9.90;99.90
52899;DHT22;38763;53.096;6.062;2023-04-24T14:22:54;9.70;99.90
52899;DHT22;38763;53.096;6.062;2023-04-24T14:25:20;9.70;99.90
52899;DHT22;38763;53.096;6.062;2023-04-24T14:27:45;9.70;99.90
52899;DHT22;38763;53.096;6.062;2023-04-24T14:30:12;9.80;99.90
52899;DHT22;38763;53.096;6.062;2023-04-24T14:32:39;9.90;99.90
52899;DHT22;38763;53.096;6.062;2023-04-24T14:35:06;9.90;99.90
52899;DHT22;38763;53.096;6.062;2023-04-24T14:37:32;10.00;99.90
52899;DHT22;38763;53.096;6.062;2023-04-24T14:39:58;10.10;99.90
52899;DHT22;38763;53.096;6.062;2023-04-24T14:42:23;10.10;99.90
52899;DHT22;38763;53.096;6.062;2023-04-24T14:44:49;10.10;99.90
52899;DHT22;38763;53.096;6.062;2023-04-24T14:47:16;10.10;99.90
52899;DHT22;38763;53.096;6.062;2023-04-24T14:49:43;10.10;99.90
52899;DHT22;38763;53.096;6.062;2023-04-24T14:52:10;10.20;99.90
52899;DHT22;38763;53.096;6.062;2023-04-24T14:54:35;10.20;99.90
52899;DHT22;38763;53.096;6.062;2023-04-24T14:57:01;10.00;99.90
52899;DHT22;38763;53.096;6.062;2023-04-24T14:59:28;10.10;99.90
52899;DHT22;38763;53.096;6.062;2023-04-24T15:01:54;10.10;99.90
52899;DHT22;38763;53.096;6.062;2023-04-24T15:04:24;10.00;99.90
52899;DHT22;38763;53.096;6.062;2023-04-24T15:06:51;9.90;99.90
52899;DHT22;38763;53.096;6.062;2023-04-24T15:09:18;9.90;99.90
52899;DHT22;38763;53.096;6.062;2023-04-24T15:11:43;9.90;99.90
52899;DHT22;38763;53.096;6.062;2023-04-24T15:14:09;10.00;99.90
52899;DHT22;38763;53.096;6.062;2023-04-24T15:16:35;10.00;99.90
52899;DHT22;38763;53.096;6.062;2023-04-24T15:19:00;9.90;99.90
52899;DHT22;38763;53.096;6.062;2023-04-24T15:21:26;10.00;99.90
52899;DHT22;38763;53.096;6.062;2023-04-24T15:23:52;9.90;99.90
52899;DHT22;38763;53.096;6.062;2023-04-24T15:26:18;9.90;99.90
52899;DHT22;38763;53.096;6.062;2023-04-24T15:28:44;10.00;99.90
52899;DHT22;38763;53.096;6.062;2023-04-24T15:31:12;10.00;99.90
52899;DHT22;38763;53.096;6.062;2023-04-24T15:33:38;10.00;99.90
52899;DHT22;38763;53.096;6.062;2023-04-24T15:36:04;10.00;99.90
52899;DHT22;38763;53.096;6.062;2023-04-24T15:38:30;9.80;99.90
52899;DHT22;38763;53.096;6.062;2023-04-24T15:40:56;9.80;99.90
52899;DHT22;38763;53.096;6.062;2023-04-24T15:43:22;9.80;99.90
52899;DHT22;38763;53.096;6.062;2023-04-24T15:45:49;9.80;99.90
52899;DHT22;38763;53.096;6.062;2023-04-24T15:48:15;9.80;99.90